createdAt,value
2022-12-24T00:01:06.865Z,1.33
2022-12-24T00:03:34.089Z,1.08
2022-12-24T00:06:08.024Z,1.55
2022-12-24T00:08:35.309Z,1.90
2022-12-24T00:11:01.938Z,1.67
2022-12-24T00:13:28.474Z,1.73
2022-12-24T00:15:54.872Z,1.77
2022-12-24T00:18:21.259Z,2.10
2022-12-24T00:20:51.072Z,2.42
2022-12-24T00:23:18.095Z,3.45
2022-12-24T00:25:45.352Z,2.05
2022-12-24T00:28:12.601Z,2.15
2022-12-24T00:30:42.924Z,2.60
2022-12-24T00:33:12.210Z,3.10
2022-12-24T00:35:39.778Z,2.53
2022-12-24T00:38:07.259Z,4.70
2022-12-24T00:40:36.817Z,2.60
2022-12-24T00:43:03.452Z,3.08
2022-12-24T00:45:32.291Z,3.50
2022-12-24T00:47:59.195Z,4.50
2022-12-24T00:50:25.915Z,5.15
2022-12-24T00:52:52.304Z,8.75
2022-12-24T00:55:19.500Z,6.55
2022-12-24T00:57:46.167Z,4.00
2022-12-24T01:00:13.337Z,3.45
2022-12-24T01:02:44.960Z,3.95
2022-12-24T01:05:12.386Z,3.35
2022-12-24T01:07:44.624Z,4.00
2022-12-24T01:12:41.084Z,3.17
2022-12-24T01:15:11.179Z,3.63
2022-12-24T01:17:40.296Z,2.05
2022-12-24T01:20:09.094Z,2.70
2022-12-24T01:22:35.823Z,2.28
2022-12-24T01:25:09.424Z,2.35
2022-12-24T01:27:38.535Z,2.90
2022-12-24T01:30:07.397Z,2.22
2022-12-24T01:32:34.143Z,2.63
2022-12-24T01:35:00.684Z,1.60
2022-12-24T01:37:27.074Z,1.95
2022-12-24T01:40:13.445Z,1.88
2022-12-24T01:43:03.909Z,1.25
2022-12-24T01:45:53.293Z,1.98
2022-12-24T01:48:35.755Z,1.50
2022-12-24T01:53:45.239Z,3.22
2022-12-24T01:56:13.037Z,2.15
2022-12-24T01:58:42.000Z,1.52
2022-12-24T02:01:09.315Z,2.03
2022-12-24T02:07:34.099Z,1.52
2022-12-24T02:10:02.049Z,1.10
2022-12-24T02:12:31.979Z,1.70
2022-12-24T02:14:59.517Z,2.35
2022-12-24T02:17:38.358Z,1.52
2022-12-24T02:20:13.615Z,1.95
2022-12-24T02:23:14.004Z,1.23
2022-12-24T02:25:49.271Z,2.03
2022-12-24T02:28:36.812Z,1.85
2022-12-24T02:31:15.176Z,1.05
2022-12-24T02:33:56.746Z,1.60
2022-12-24T02:36:33.493Z,2.17
2022-12-24T02:39:10.501Z,2.10
2022-12-24T02:42:02.370Z,4.30
2022-12-24T02:44:32.139Z,5.30
2022-12-24T02:47:00.680Z,5.50
2022-12-24T02:49:27.090Z,2.72
2022-12-24T02:51:53.492Z,2.13
2022-12-24T02:54:20.253Z,1.83
2022-12-24T02:57:00.663Z,2.35
2022-12-24T02:59:35.153Z,1.70
2022-12-24T03:02:07.352Z,1.90
2022-12-24T03:07:26.242Z,1.45
2022-12-24T03:10:10.913Z,1.63
2022-12-24T03:12:46.942Z,1.52
2022-12-24T03:15:17.370Z,1.80
2022-12-24T03:17:47.735Z,2.08
2022-12-24T03:20:20.686Z,2.55
2022-12-24T03:22:47.272Z,1.98
2022-12-24T03:25:16.619Z,1.55
2022-12-24T03:27:44.051Z,1.42
2022-12-24T03:30:13.715Z,2.10
2022-12-24T03:32:40.705Z,2.25
2022-12-24T03:35:08.580Z,2.08
2022-12-24T03:37:35.015Z,1.40
2022-12-24T03:40:04.005Z,0.90
2022-12-24T03:42:33.030Z,1.92
2022-12-24T03:44:59.388Z,1.70
2022-12-24T03:47:25.796Z,2.08
2022-12-24T03:49:52.195Z,1.88
2022-12-24T03:52:18.548Z,2.00
2022-12-24T03:54:44.965Z,1.10
2022-12-24T03:57:11.326Z,1.98
2022-12-24T03:59:37.756Z,1.55
2022-12-24T04:02:22.811Z,1.90
2022-12-24T04:04:49.374Z,1.63
2022-12-24T04:07:15.710Z,2.25
2022-12-24T04:09:42.436Z,2.55
2022-12-24T04:12:08.834Z,1.80
2022-12-24T04:14:37.350Z,2.15
2022-12-24T04:17:06.887Z,2.10
2022-12-24T04:19:33.289Z,2.53
2022-12-24T04:22:02.005Z,2.22
2022-12-24T04:24:28.749Z,1.90
2022-12-24T04:26:55.217Z,11.93
2022-12-24T04:29:21.615Z,10.82
2022-12-24T04:31:48.042Z,16.02
2022-12-24T04:34:14.497Z,11.23
2022-12-24T04:36:40.890Z,5.35
2022-12-24T04:39:09.843Z,2.90
2022-12-24T04:41:40.907Z,2.80
2022-12-24T04:44:08.607Z,2.72
2022-12-24T04:46:35.734Z,2.80
2022-12-24T04:49:02.181Z,2.58
2022-12-24T04:51:29.213Z,2.28
2022-12-24T04:53:56.622Z,1.75
2022-12-24T04:56:29.827Z,3.00
2022-12-24T04:58:56.711Z,2.20
2022-12-24T05:01:26.326Z,3.08
2022-12-24T05:03:56.383Z,3.10
2022-12-24T05:06:26.848Z,2.55
2022-12-24T05:08:59.549Z,2.28
2022-12-24T05:11:26.572Z,2.47
2022-12-24T05:13:53.109Z,2.08
2022-12-24T05:16:21.309Z,2.40
2022-12-24T05:18:50.848Z,3.03
2022-12-24T05:21:22.685Z,1.98
2022-12-24T05:24:08.416Z,3.38
2022-12-24T05:26:40.537Z,2.55
2022-12-24T05:29:09.260Z,2.80
2022-12-24T05:31:36.140Z,2.90
2022-12-24T05:34:03.261Z,2.88
2022-12-24T05:36:29.805Z,4.07
2022-12-24T05:38:56.662Z,3.45
2022-12-24T05:41:23.689Z,2.72
2022-12-24T05:43:50.675Z,3.25
2022-12-24T05:46:19.188Z,3.28
2022-12-24T05:48:46.709Z,3.67
2022-12-24T05:51:14.546Z,2.72
2022-12-24T05:53:41.822Z,3.47
2022-12-24T05:56:14.257Z,3.35
2022-12-24T05:58:41.580Z,3.25
2022-12-24T06:01:09.422Z,3.50
2022-12-24T06:03:36.968Z,3.55
2022-12-24T06:06:06.614Z,3.72
2022-12-24T06:08:36.873Z,3.83
2022-12-24T06:11:06.538Z,2.72
2022-12-24T06:13:33.607Z,3.75
2022-12-24T06:16:02.482Z,3.35
2022-12-24T06:18:30.345Z,4.30
2022-12-24T06:20:57.592Z,4.22
2022-12-24T06:23:25.195Z,4.25
2022-12-24T06:25:52.029Z,6.15
2022-12-24T06:28:18.683Z,4.68
2022-12-24T06:30:57.157Z,4.70
2022-12-24T06:33:27.355Z,3.70
2022-12-24T06:35:53.779Z,4.07
2022-12-24T06:38:20.419Z,3.28
2022-12-24T06:40:47.453Z,3.00
2022-12-24T06:43:17.042Z,2.88
2022-12-24T06:45:47.885Z,3.33
2022-12-24T06:48:17.381Z,3.40
2022-12-24T06:50:43.761Z,3.47
2022-12-24T06:53:10.682Z,3.97
2022-12-24T06:55:37.305Z,2.75
2022-12-24T06:58:06.270Z,3.30
2022-12-24T07:00:32.734Z,2.47
2022-12-24T07:02:59.381Z,2.25
2022-12-24T07:05:29.219Z,3.63
2022-12-24T07:07:55.807Z,3.05
2022-12-24T07:10:23.235Z,2.60
2022-12-24T07:12:49.633Z,2.60
2022-12-24T07:15:16.848Z,2.50
2022-12-24T07:17:43.496Z,3.33
2022-12-24T07:20:15.312Z,2.42
2022-12-24T07:22:42.499Z,2.60
2022-12-24T07:25:09.692Z,1.92
2022-12-24T07:27:36.838Z,1.83
2022-12-24T07:30:04.071Z,2.20
2022-12-24T07:32:30.617Z,2.38
2022-12-24T07:34:57.133Z,1.83
2022-12-24T07:37:25.739Z,2.42
2022-12-24T07:39:54.715Z,2.00
2022-12-24T07:42:23.678Z,3.55
2022-12-24T07:44:50.649Z,2.53
2022-12-24T07:47:17.097Z,2.25
2022-12-24T07:49:43.636Z,2.20
2022-12-24T07:52:10.059Z,2.75
2022-12-24T07:54:36.457Z,1.90
2022-12-24T07:57:05.178Z,3.35
2022-12-24T07:59:31.571Z,2.65
2022-12-24T08:01:58.420Z,2.38
2022-12-24T08:04:25.179Z,2.55
2022-12-24T08:06:53.942Z,3.45
2022-12-24T08:09:22.888Z,3.92
2022-12-24T08:11:52.179Z,3.55
2022-12-24T08:14:19.175Z,2.63
2022-12-24T08:16:45.611Z,3.63
2022-12-24T08:19:12.032Z,3.05
2022-12-24T08:21:40.775Z,2.63
2022-12-24T08:24:07.257Z,3.45
2022-12-24T08:26:33.645Z,3.58
2022-12-24T08:29:00.111Z,2.47
2022-12-24T08:31:26.700Z,2.67
2022-12-24T08:33:58.179Z,2.70
2022-12-24T08:36:24.522Z,2.50
2022-12-24T08:38:53.850Z,3.80
2022-12-24T08:41:20.240Z,5.15
2022-12-24T08:43:46.703Z,4.68
2022-12-24T08:46:13.157Z,3.33
2022-12-24T08:48:39.654Z,4.45
2022-12-24T08:51:10.532Z,3.65
2022-12-24T08:53:38.148Z,3.47
2022-12-24T08:56:06.824Z,3.53
2022-12-24T08:58:33.496Z,3.00
2022-12-24T09:01:00.287Z,2.97
2022-12-24T09:03:28.102Z,3.63
2022-12-24T09:05:55.067Z,3.42
2022-12-24T09:08:21.653Z,3.97
2022-12-24T09:10:48.133Z,3.70
2022-12-24T09:13:14.558Z,4.20
2022-12-24T09:15:40.965Z,8.57
2022-12-24T09:18:07.518Z,4.25
2022-12-24T09:20:36.227Z,5.22
2022-12-24T09:23:02.709Z,3.88
2022-12-24T09:25:29.178Z,5.65
2022-12-24T09:27:55.552Z,4.82
2022-12-24T09:30:22.191Z,7.57
2022-12-24T09:32:51.390Z,4.60
2022-12-24T09:35:17.805Z,5.18
2022-12-24T09:37:46.971Z,5.53
2022-12-24T09:40:27.400Z,6.47
2022-12-24T09:42:54.801Z,5.50
2022-12-24T09:45:33.035Z,5.57
2022-12-24T09:48:03.710Z,5.25
2022-12-24T09:50:41.247Z,3.83
2022-12-24T09:53:23.459Z,4.18
2022-12-24T09:55:54.466Z,3.33
2022-12-24T09:58:41.328Z,6.80
2022-12-24T10:01:13.192Z,5.28
2022-12-24T10:03:43.845Z,5.47
2022-12-24T10:06:24.985Z,4.75
2022-12-24T10:09:30.896Z,5.38
2022-12-24T10:12:03.230Z,4.82
2022-12-24T10:14:43.677Z,4.05
2022-12-24T10:17:52.282Z,3.58
2022-12-24T10:20:56.171Z,2.65
2022-12-24T10:24:04.486Z,4.32
2022-12-24T10:26:39.189Z,3.70
2022-12-24T10:29:14.374Z,3.40
2022-12-24T10:31:50.090Z,4.22
2022-12-24T10:34:22.605Z,3.08
2022-12-24T10:36:51.446Z,3.60
2022-12-24T10:39:25.809Z,4.05
2022-12-24T10:41:55.322Z,4.65
2022-12-24T10:44:25.810Z,3.05
2022-12-24T10:46:52.358Z,3.67
2022-12-24T10:49:44.071Z,2.60
2022-12-24T10:52:13.251Z,4.80
2022-12-24T10:55:08.118Z,3.17
2022-12-24T10:57:35.366Z,4.53
2022-12-24T11:00:04.300Z,4.05
2022-12-24T11:02:37.329Z,3.10
2022-12-24T11:05:30.891Z,4.65
2022-12-24T11:08:20.410Z,4.25
2022-12-24T11:10:59.011Z,4.00
2022-12-24T11:13:40.968Z,3.75
2022-12-24T11:16:10.157Z,3.88
2022-12-24T11:18:50.512Z,2.92
2022-12-24T11:21:34.251Z,2.85
2022-12-24T11:24:03.132Z,3.45
2022-12-24T11:26:30.826Z,2.85
2022-12-24T11:29:18.663Z,3.63
2022-12-24T11:31:46.040Z,3.38
2022-12-24T11:34:22.278Z,5.03
2022-12-24T11:36:56.826Z,5.57
2022-12-24T11:39:25.975Z,3.83
2022-12-24T11:41:55.851Z,3.60
2022-12-24T11:44:27.592Z,3.05
2022-12-24T11:46:59.063Z,2.67
2022-12-24T11:49:28.654Z,2.90
2022-12-24T11:52:10.176Z,3.03
2022-12-24T11:54:53.291Z,1.63
2022-12-24T11:57:25.150Z,2.15
2022-12-24T11:59:54.174Z,2.83
2022-12-24T12:02:28.318Z,2.67
2022-12-24T12:05:03.199Z,2.55
2022-12-24T12:07:36.768Z,3.08
2022-12-24T12:10:07.867Z,3.03
2022-12-24T12:12:41.685Z,2.17
2022-12-24T12:15:19.081Z,2.20
2022-12-24T12:17:54.724Z,3.33
2022-12-24T12:20:33.406Z,2.75
2022-12-24T12:23:30.484Z,1.95
2022-12-24T12:26:28.785Z,2.30
2022-12-24T12:29:03.963Z,2.65
2022-12-24T12:31:36.561Z,2.53
2022-12-24T12:34:12.072Z,2.42
2022-12-24T12:37:14.901Z,3.90
2022-12-24T12:39:42.333Z,2.85
2022-12-24T12:42:15.080Z,3.55
2022-12-24T12:44:59.939Z,4.20
2022-12-24T12:47:56.017Z,3.22
2022-12-24T12:51:03.638Z,3.53
2022-12-24T12:53:40.589Z,3.05
2022-12-24T12:56:25.629Z,2.42
2022-12-24T12:59:07.644Z,4.55
2022-12-24T13:01:47.051Z,2.58
2022-12-24T13:04:39.833Z,3.17
2022-12-24T13:07:24.410Z,2.78
2022-12-24T13:10:03.108Z,2.83
2022-12-24T13:12:56.571Z,2.63
2022-12-24T13:15:46.929Z,3.45
2022-12-24T13:18:31.650Z,2.13
2022-12-24T13:20:58.224Z,2.78
2022-12-24T13:23:26.499Z,2.90
2022-12-24T13:25:56.235Z,3.22
2022-12-24T13:28:24.781Z,2.92
2022-12-24T13:31:24.421Z,2.75
2022-12-24T13:33:57.019Z,3.13
2022-12-24T13:36:23.939Z,3.30
2022-12-24T13:38:57.258Z,3.20
2022-12-24T13:41:41.403Z,4.05
2022-12-24T13:44:17.506Z,3.03
2022-12-24T13:47:03.248Z,4.85
2022-12-24T13:49:37.420Z,3.20
2022-12-24T13:52:15.313Z,4.07
2022-12-24T13:54:46.041Z,3.20
2022-12-24T13:57:33.892Z,3.30
2022-12-24T14:00:22.658Z,2.38
2022-12-24T14:02:55.344Z,2.85
2022-12-24T14:05:32.208Z,1.63
2022-12-24T14:08:01.838Z,2.15
2022-12-24T14:10:39.024Z,2.28
2022-12-24T14:13:09.921Z,2.72
2022-12-24T14:15:48.464Z,2.83
2022-12-24T14:18:24.524Z,2.47
2022-12-24T14:20:53.026Z,1.88
2022-12-24T14:23:31.615Z,2.72
2022-12-24T14:26:00.686Z,1.95
2022-12-24T14:28:34.767Z,2.00
2022-12-24T14:31:05.743Z,2.33
2022-12-24T14:33:34.571Z,2.83
2022-12-24T14:36:02.509Z,3.47
2022-12-24T14:38:35.601Z,2.13
2022-12-24T14:41:28.424Z,2.47
2022-12-24T14:44:21.768Z,2.53
2022-12-24T14:46:58.769Z,2.25
2022-12-24T14:49:55.361Z,3.38
2022-12-24T14:55:50.947Z,2.15
2022-12-24T14:58:36.328Z,2.95
2022-12-24T15:01:23.333Z,1.92
2022-12-24T15:04:14.029Z,2.50
2022-12-24T15:06:43.379Z,1.48
2022-12-24T15:09:21.142Z,1.85
2022-12-24T15:11:54.082Z,2.13
2022-12-24T15:14:27.608Z,1.67
2022-12-24T15:17:00.757Z,1.90
2022-12-24T15:19:40.307Z,2.10
2022-12-24T15:22:23.357Z,2.38
2022-12-24T15:24:49.886Z,2.22
2022-12-24T15:27:19.730Z,2.50
2022-12-24T15:29:49.035Z,1.63
2022-12-24T15:32:19.979Z,2.00
2022-12-24T15:34:48.843Z,2.15
2022-12-24T15:37:21.400Z,2.55
2022-12-24T15:39:59.498Z,2.10
2022-12-24T15:42:27.714Z,1.73
2022-12-24T15:44:57.281Z,1.25
2022-12-24T15:47:29.966Z,3.40
2022-12-24T15:49:56.951Z,2.45
2022-12-24T15:52:25.365Z,3.67
2022-12-24T15:54:57.661Z,4.93
2022-12-24T15:57:29.670Z,3.13
2022-12-24T15:59:58.096Z,3.00
2022-12-24T16:02:39.976Z,4.60
2022-12-24T16:05:21.758Z,2.40
2022-12-24T16:08:09.577Z,2.40
2022-12-24T16:11:08.389Z,2.53
2022-12-24T16:13:43.121Z,3.70
2022-12-24T16:16:13.061Z,2.38
2022-12-24T16:18:46.829Z,2.80
2022-12-24T16:21:28.697Z,3.70
2022-12-24T16:23:57.677Z,3.45
2022-12-24T16:26:24.410Z,3.00
2022-12-24T16:28:50.914Z,3.13
2022-12-24T16:31:20.142Z,4.07
2022-12-24T16:33:47.187Z,3.60
2022-12-24T16:36:14.724Z,3.40
2022-12-24T16:38:59.849Z,4.82
2022-12-24T16:41:26.243Z,6.35
2022-12-24T16:43:52.609Z,5.05
2022-12-24T16:46:19.186Z,4.15
2022-12-24T16:48:48.253Z,2.95
2022-12-24T16:51:14.715Z,3.70
2022-12-24T16:53:41.284Z,4.18
2022-12-24T16:56:07.901Z,3.90
2022-12-24T16:58:34.987Z,3.83
2022-12-24T17:01:07.807Z,4.03
2022-12-24T17:03:35.308Z,4.05
2022-12-24T17:06:05.809Z,4.43
2022-12-24T17:08:34.426Z,6.55
2022-12-24T17:11:06.108Z,5.60
2022-12-24T17:13:32.488Z,6.10
2022-12-24T17:16:01.253Z,5.22
2022-12-24T17:18:27.645Z,5.05
2022-12-24T17:21:01.082Z,4.80
2022-12-24T17:23:27.959Z,4.85
2022-12-24T17:25:54.342Z,5.00
2022-12-24T17:28:21.547Z,4.40
2022-12-24T17:30:48.054Z,4.93
2022-12-24T17:33:15.194Z,2.88
2022-12-24T17:35:42.848Z,4.72
2022-12-24T17:38:09.706Z,4.15
2022-12-24T17:40:38.785Z,4.45
2022-12-24T17:43:07.417Z,3.83
2022-12-24T17:45:33.757Z,5.55
2022-12-24T17:48:00.147Z,4.07
2022-12-24T17:50:27.923Z,4.25
2022-12-24T17:52:54.295Z,5.85
2022-12-24T17:55:22.521Z,6.45
2022-12-24T17:57:49.166Z,4.22
2022-12-24T18:00:16.467Z,4.07
2022-12-24T18:02:43.038Z,3.53
2022-12-24T18:05:09.760Z,4.70
2022-12-24T18:07:36.275Z,3.92
2022-12-24T18:10:04.637Z,4.75
2022-12-24T18:12:31.130Z,5.10
2022-12-24T18:14:57.647Z,8.38
2022-12-24T18:17:24.280Z,7.38
2022-12-24T18:19:50.965Z,7.72
2022-12-24T18:22:17.378Z,7.78
2022-12-24T18:24:46.264Z,6.68
2022-12-24T18:27:12.611Z,6.63
2022-12-24T18:29:41.512Z,6.22
2022-12-24T18:32:08.630Z,6.22
2022-12-24T18:34:38.679Z,8.57
2022-12-24T18:37:05.080Z,5.40
2022-12-24T18:39:31.539Z,7.28
2022-12-24T18:41:57.917Z,8.48
2022-12-24T18:44:26.649Z,7.55
2022-12-24T18:46:56.263Z,10.00
2022-12-24T18:49:22.767Z,10.80
2022-12-24T18:51:49.251Z,7.68
2022-12-24T18:54:15.607Z,7.72
2022-12-24T18:56:42.070Z,7.05
2022-12-24T18:59:09.605Z,7.53
2022-12-24T19:01:36.371Z,6.07
2022-12-24T19:04:05.324Z,8.55
2022-12-24T19:06:31.774Z,9.90
2022-12-24T19:09:00.200Z,9.27
2022-12-24T19:11:29.844Z,8.75
2022-12-24T19:13:57.904Z,7.43
2022-12-24T19:16:24.839Z,5.30
2022-12-24T19:18:56.274Z,4.15
2022-12-24T19:21:22.884Z,5.77
2022-12-24T19:23:51.991Z,7.88
2022-12-24T19:26:19.813Z,8.77
2022-12-24T19:28:48.434Z,10.05
2022-12-24T19:31:18.825Z,7.90
2022-12-24T19:33:48.166Z,9.15
2022-12-24T19:36:19.481Z,6.60
2022-12-24T19:38:46.069Z,9.23
2022-12-24T19:41:18.902Z,5.75
2022-12-24T19:43:48.067Z,9.52
2022-12-24T19:46:17.408Z,7.88
2022-12-24T19:48:50.071Z,5.93
2022-12-24T19:51:17.707Z,8.43
2022-12-24T19:53:47.828Z,7.30
2022-12-24T19:56:16.818Z,5.72
2022-12-24T19:58:44.474Z,6.50
2022-12-24T20:01:16.050Z,9.02
2022-12-24T20:03:43.805Z,7.72
2022-12-24T20:06:10.836Z,6.40
2022-12-24T20:08:37.998Z,5.60
2022-12-24T20:11:07.403Z,6.15
2022-12-24T20:13:34.846Z,6.68
2022-12-24T20:16:06.843Z,6.68
2022-12-24T20:18:38.263Z,6.40
2022-12-24T20:21:08.727Z,7.93
2022-12-24T20:23:39.896Z,6.28
2022-12-24T20:26:07.788Z,5.30
2022-12-24T20:28:36.404Z,5.65
2022-12-24T20:31:20.302Z,6.57
2022-12-24T20:33:49.362Z,4.32
2022-12-24T20:36:18.224Z,5.82
2022-12-24T20:38:45.349Z,5.72
2022-12-24T20:41:14.733Z,5.03
2022-12-24T20:43:47.915Z,4.28
2022-12-24T20:46:21.700Z,4.70
2022-12-24T20:48:48.795Z,5.80
2022-12-24T20:51:23.765Z,6.07
2022-12-24T20:53:53.264Z,4.65
2022-12-24T20:56:22.559Z,7.10
2022-12-24T20:58:49.218Z,5.95
2022-12-24T21:01:19.377Z,5.72
2022-12-24T21:03:46.345Z,6.03
2022-12-24T21:06:13.745Z,5.03
2022-12-24T21:08:40.153Z,4.50
2022-12-24T21:11:25.058Z,4.38
2022-12-24T21:13:51.563Z,4.00
2022-12-24T21:16:17.979Z,3.67
2022-12-24T21:18:44.376Z,4.10
2022-12-24T21:21:15.597Z,4.25
2022-12-24T21:23:42.180Z,3.85
2022-12-24T21:26:08.672Z,4.45
2022-12-24T21:28:35.156Z,3.70
2022-12-24T21:31:01.765Z,4.43
2022-12-24T21:33:32.060Z,3.67
2022-12-24T21:36:02.862Z,4.30
2022-12-24T21:38:29.267Z,3.90
2022-12-24T21:41:16.527Z,3.33
2022-12-24T21:43:43.641Z,3.15
2022-12-24T21:46:13.046Z,3.78
2022-12-24T21:48:59.082Z,3.50
2022-12-24T21:51:26.882Z,3.40
2022-12-24T21:54:12.379Z,2.90
2022-12-24T21:57:04.862Z,3.28
2022-12-24T21:59:31.351Z,2.95
2022-12-24T22:01:58.457Z,3.47
2022-12-24T22:04:25.306Z,2.90
2022-12-24T22:07:13.154Z,3.33
2022-12-24T22:09:58.839Z,3.65
2022-12-24T22:12:29.443Z,3.20
2022-12-24T22:14:55.897Z,3.25
2022-12-24T22:17:25.783Z,3.40
2022-12-24T22:19:53.545Z,3.40
2022-12-24T22:22:23.330Z,3.40
2022-12-24T22:24:49.832Z,3.50
2022-12-24T22:27:18.409Z,3.10
2022-12-24T22:29:47.169Z,2.97
2022-12-24T22:32:16.095Z,2.63
2022-12-24T22:34:43.579Z,2.88
2022-12-24T22:37:10.056Z,2.80
2022-12-24T22:39:36.706Z,3.72
2022-12-24T22:42:07.950Z,2.17
2022-12-24T22:44:34.593Z,2.50
2022-12-24T22:47:01.016Z,3.50
2022-12-24T22:49:30.526Z,4.10
2022-12-24T22:52:00.647Z,4.13
2022-12-24T22:54:27.165Z,3.35
2022-12-24T22:56:53.885Z,2.72
2022-12-24T22:59:20.275Z,3.47
2022-12-24T23:01:47.708Z,3.10
2022-12-24T23:04:14.428Z,3.78
2022-12-24T23:06:41.753Z,4.07
2022-12-24T23:09:16.670Z,3.40
2022-12-24T23:11:44.084Z,3.75
2022-12-24T23:14:34.661Z,4.18
2022-12-24T23:17:04.232Z,4.10
2022-12-24T23:19:31.967Z,4.18
2022-12-24T23:22:01.679Z,3.10
2022-12-24T23:24:28.411Z,4.05
2022-12-24T23:26:55.682Z,4.75
2022-12-24T23:29:22.301Z,3.70
2022-12-24T23:31:51.141Z,3.30
2022-12-24T23:34:17.611Z,4.15
2022-12-24T23:36:44.141Z,3.22
2022-12-24T23:39:10.580Z,3.83
2022-12-24T23:41:37.103Z,3.38
2022-12-24T23:44:04.500Z,3.63
2022-12-24T23:46:31.034Z,4.15
2022-12-24T23:48:57.514Z,4.55
2022-12-24T23:51:26.517Z,3.85
2022-12-24T23:53:56.572Z,3.47
2022-12-24T23:56:25.078Z,3.45
2022-12-24T23:58:51.988Z,2.70
